Time;durP1;ratioP1;P1;durP2;ratioP2;P2;SDS_P1;SDS_P2;PMS_P1;PMS_P2;Temp;Humidity;BMP_temperature;BMP_pressure;BME280_temperature;BME280_humidity;BME280_pressure;Samples;Min_cycle;Max_cycle;Signal;HPM_P1;HPM_P2
2022/02/16 00:02:14;;;;;;;1.98;1.25;;;6.80;99.90;;;;;;4991369;28;20124;-67
2022/02/16 00:04:40;;;;;;;1.58;1.00;;;6.80;99.90;;;;;;4989462;28;20023;-67
2022/02/16 00:07:06;;;;;;;1.42;1.00;;;6.80;99.90;;;;;;4990015;28;20073;-67
2022/02/16 00:09:32;;;;;;;1.48;0.93;;;6.80;99.90;;;;;;4995887;28;20019;-67
2022/02/16 00:12:00;;;;;;;2.20;1.25;;;6.80;99.90;;;;;;4992356;28;20493;-68
2022/02/16 00:14:26;;;;;;;2.05;0.85;;;6.80;99.90;;;;;;4987251;28;20024;-68
2022/02/16 00:16:52;;;;;;;1.27;1.00;;;6.80;99.90;;;;;;4990767;28;20053;-68
2022/02/16 00:19:18;;;;;;;1.42;0.90;;;6.80;99.90;;;;;;4988823;28;20076;-68
2022/02/16 00:21:43;;;;;;;1.20;0.75;;;6.80;99.90;;;;;;4994875;28;20045;-67
2022/02/16 00:24:09;;;;;;;2.78;1.10;;;6.70;99.90;;;;;;4991228;28;20034;-67
2022/02/16 00:26:34;;;;;;;3.47;1.20;;;6.80;99.90;;;;;;4990784;28;20038;-67
2022/02/16 00:29:00;;;;;;;2.53;0.90;;;6.80;99.90;;;;;;4990089;28;20027;-67
2022/02/16 00:31:26;;;;;;;1.20;0.90;;;6.80;99.90;;;;;;4991356;28;20080;-67
2022/02/16 00:33:51;;;;;;;2.00;0.98;;;6.80;99.90;;;;;;4986049;28;20050;-67
2022/02/16 00:36:18;;;;;;;2.15;1.10;;;6.80;99.90;;;;;;4988076;28;20406;-67
2022/02/16 00:38:43;;;;;;;1.20;0.82;;;6.80;99.90;;;;;;4983851;28;20034;-67
2022/02/16 00:41:09;;;;;;;3.05;1.38;;;6.80;99.90;;;;;;4986084;28;20044;-67
2022/02/16 00:43:35;;;;;;;2.22;1.20;;;6.80;99.90;;;;;;4985516;28;20487;-67
2022/02/16 00:46:00;;;;;;;1.48;1.08;;;6.80;99.90;;;;;;4991274;28;20395;-67
2022/02/16 00:48:26;;;;;;;3.50;1.30;;;6.80;99.90;;;;;;4987567;28;20109;-67
2022/02/16 00:50:51;;;;;;;1.38;0.95;;;6.80;99.90;;;;;;4985157;28;20425;-67
2022/02/16 00:53:17;;;;;;;1.13;0.90;;;6.80;99.90;;;;;;4992206;28;20496;-68
2022/02/16 00:55:42;;;;;;;2.90;1.25;;;6.80;99.90;;;;;;4986216;28;20031;-67
2022/02/16 00:58:08;;;;;;;2.60;1.20;;;6.80;99.90;;;;;;4990356;28;20475;-67
2022/02/16 01:00:35;;;;;;;2.40;1.10;;;6.80;99.90;;;;;;4987117;28;20026;-67
2022/02/16 01:03:01;;;;;;;1.65;0.98;;;6.80;99.90;;;;;;4979781;28;20034;-67
2022/02/16 01:05:27;;;;;;;0.60;0.60;;;6.80;99.90;;;;;;4991550;28;20169;-67
2022/02/16 01:07:53;;;;;;;1.52;1.25;;;6.80;99.90;;;;;;4986374;28;20587;-67
2022/02/16 01:10:19;;;;;;;2.75;1.02;;;6.90;99.90;;;;;;4987352;28;20062;-68
2022/02/16 01:12:44;;;;;;;1.67;1.13;;;6.90;99.90;;;;;;4982683;28;20061;-68
2022/02/16 01:15:10;;;;;;;1.02;0.85;;;;;;;;;;4989191;28;20562;-68
2022/02/16 01:17:36;;;;;;;1.42;0.82;;;6.90;99.90;;;;;;4985569;28;20023;-68
2022/02/16 01:20:05;;;;;;;1.75;0.93;;;6.90;99.90;;;;;;4985703;28;20026;-68
2022/02/16 01:22:31;;;;;;;4.68;1.40;;;6.90;99.90;;;;;;4987826;28;20494;-68
2022/02/16 01:24:56;;;;;;;2.30;1.00;;;6.90;99.90;;;;;;4985308;28;20034;-67
2022/02/16 01:27:22;;;;;;;3.13;1.30;;;6.90;99.90;;;;;;4987542;28;20018;-68
2022/02/16 01:29:47;;;;;;;1.92;1.08;;;6.90;99.90;;;;;;4989570;28;20022;-68
2022/02/16 01:32:13;;;;;;;1.58;1.08;;;6.90;99.90;;;;;;4987506;28;20028;-68
2022/02/16 01:34:39;;;;;;;2.08;1.10;;;6.90;99.90;;;;;;4990847;28;20026;-68
2022/02/16 01:37:04;;;;;;;1.90;1.17;;;6.90;99.90;;;;;;4985227;28;20022;-68
2022/02/16 01:39:30;;;;;;;1.63;1.00;;;6.90;99.90;;;;;;4987171;28;20063;-68
2022/02/16 01:41:56;;;;;;;1.25;0.88;;;7.00;99.90;;;;;;4983911;28;20463;-68
2022/02/16 01:44:22;;;;;;;1.23;0.98;;;6.90;99.90;;;;;;4985106;28;20030;-68
2022/02/16 01:46:59;;;;;;;1.83;0.98;;;6.90;99.90;;;;;;4993680;28;20554;-68
2022/02/16 01:49:24;;;;;;;1.83;1.02;;;6.90;99.90;;;;;;4983265;28;20026;-68
2022/02/16 01:51:50;;;;;;;2.83;1.25;;;6.90;99.90;;;;;;4986401;28;20075;-68
2022/02/16 01:54:16;;;;;;;0.73;0.73;;;6.90;99.90;;;;;;4983995;28;20037;-68
2022/02/16 01:56:49;;;;;;;1.75;0.90;;;7.00;99.90;;;;;;4986784;28;20486;-68
2022/02/16 01:59:16;;;;;;;3.70;1.30;;;7.00;99.90;;;;;;4985214;28;20027;-69
2022/02/16 02:01:43;;;;;;;1.08;0.98;;;7.00;99.90;;;;;;4984570;28;20029;-68
2022/02/16 02:04:08;;;;;;;1.73;1.52;;;7.00;99.90;;;;;;4983156;28;20033;-68
2022/02/16 02:06:34;;;;;;;2.45;1.40;;;7.00;99.90;;;;;;4985294;28;20113;-68
2022/02/16 02:09:00;;;;;;;0.77;0.77;;;7.00;99.90;;;;;;4985765;28;20026;-68
2022/02/16 02:11:26;;;;;;;2.10;1.20;;;7.00;99.90;;;;;;4983226;28;20034;-68
2022/02/16 02:13:57;;;;;;;1.17;0.90;;;7.00;99.90;;;;;;4988007;28;20371;-68
2022/02/16 02:16:22;;;;;;;1.75;1.00;;;7.00;99.90;;;;;;4986181;28;20030;-68
2022/02/16 02:18:48;;;;;;;1.77;1.05;;;7.00;99.90;;;;;;4987323;28;20502;-68
2022/02/16 02:21:14;;;;;;;1.15;0.90;;;7.00;99.90;;;;;;4983178;28;20031;-68
2022/02/16 02:23:40;;;;;;;1.13;1.00;;;7.00;99.90;;;;;;4988195;28;20054;-68
2022/02/16 02:26:06;;;;;;;2.40;1.05;;;7.00;99.90;;;;;;4981488;28;20030;-68
2022/02/16 02:28:31;;;;;;;1.40;1.15;;;7.00;99.90;;;;;;4985723;28;20084;-68
2022/02/16 02:30:57;;;;;;;2.83;1.10;;;7.00;99.90;;;;;;4988124;28;20038;-68
2022/02/16 02:33:22;;;;;;;1.42;1.10;;;7.00;99.90;;;;;;4982438;28;20022;-68
2022/02/16 02:35:49;;;;;;;2.75;1.17;;;7.10;99.90;;;;;;4987259;28;20487;-67
2022/02/16 02:38:15;;;;;;;0.95;0.80;;;7.00;99.90;;;;;;4984340;28;20026;-68
2022/02/16 02:40:40;;;;;;;2.10;1.20;;;7.00;99.90;;;;;;4982416;28;20031;-68
2022/02/16 02:43:07;;;;;;;1.35;0.90;;;7.10;99.90;;;;;;4990779;28;20406;-68
2022/02/16 02:45:32;;;;;;;1.58;0.90;;;7.10;99.90;;;;;;4982053;28;20105;-68
2022/02/16 02:47:58;;;;;;;2.20;1.15;;;7.10;99.90;;;;;;4990119;28;20034;-68
2022/02/16 02:50:24;;;;;;;1.67;1.10;;;7.10;99.90;;;;;;5000919;28;20030;-68
2022/02/16 02:52:50;;;;;;;2.05;1.20;;;7.20;99.90;;;;;;4986204;28;20033;-68
2022/02/16 02:55:16;;;;;;;3.05;1.25;;;7.10;99.90;;;;;;4987544;28;20034;-68
2022/02/16 02:57:42;;;;;;;2.42;1.13;;;7.10;99.90;;;;;;4988744;28;20382;-68
2022/02/16 03:00:10;;;;;;;1.52;1.00;;;7.20;99.90;;;;;;4985747;28;20541;-68
2022/02/16 03:02:36;;;;;;;0.70;0.70;;;7.20;99.90;;;;;;4984499;28;20338;-68
2022/02/16 03:05:02;;;;;;;0.85;0.85;;;7.20;99.90;;;;;;4987883;28;20050;-68
2022/02/16 03:07:28;;;;;;;1.77;0.90;;;7.20;99.90;;;;;;4984337;28;20549;-68
2022/02/16 03:09:53;;;;;;;2.83;1.00;;;7.20;99.90;;;;;;4987770;28;20064;-68
2022/02/16 03:12:19;;;;;;;1.15;0.80;;;7.20;99.90;;;;;;4984652;28;20058;-69
2022/02/16 03:14:45;;;;;;;2.22;1.00;;;7.20;99.90;;;;;;4990557;28;20073;-69
2022/02/16 03:17:11;;;;;;;3.13;1.25;;;7.20;99.90;;;;;;5001036;28;20042;-69
2022/02/16 03:19:36;;;;;;;1.23;0.90;;;7.20;99.90;;;;;;4987843;28;20407;-69
2022/02/16 03:22:03;;;;;;;1.95;1.08;;;7.20;99.90;;;;;;4984661;28;20029;-69
2022/02/16 03:24:28;;;;;;;1.73;0.90;;;7.30;99.90;;;;;;4985473;28;20491;-69
2022/02/16 03:26:54;;;;;;;1.55;1.05;;;7.30;99.90;;;;;;4988983;28;20062;-69
2022/02/16 03:29:19;;;;;;;2.95;1.17;;;7.30;99.90;;;;;;5004148;28;20510;-69
2022/02/16 03:31:46;;;;;;;1.02;0.90;;;7.30;99.90;;;;;;4986822;28;20036;-68
2022/02/16 03:34:12;;;;;;;1.55;1.08;;;7.30;99.90;;;;;;4985786;28;20057;-68
2022/02/16 03:36:38;;;;;;;2.45;1.17;;;7.30;99.90;;;;;;4985084;28;20011;-68
2022/02/16 03:39:04;;;;;;;1.38;0.93;;;7.30;99.90;;;;;;4985894;28;20074;-68
2022/02/16 03:41:29;;;;;;;3.38;1.00;;;7.30;99.90;;;;;;4985366;28;20059;-68
2022/02/16 03:43:55;;;;;;;3.25;0.90;;;7.30;99.90;;;;;;4982860;28;20053;-68
2022/02/16 03:46:20;;;;;;;3.38;1.20;;;7.30;99.90;;;;;;4984299;28;20470;-69
2022/02/16 03:48:46;;;;;;;1.88;1.00;;;7.30;99.90;;;;;;4983031;28;20031;-68
2022/02/16 03:51:13;;;;;;;2.17;1.15;;;7.30;99.90;;;;;;4997679;28;20022;-68
2022/02/16 03:53:38;;;;;;;1.38;0.85;;;7.30;99.90;;;;;;4980080;28;20037;-69
2022/02/16 03:56:04;;;;;;;1.90;1.10;;;7.30;99.90;;;;;;4981972;28;20034;-68
2022/02/16 03:58:30;;;;;;;2.45;1.23;;;7.30;99.90;;;;;;4984643;28;20109;-68
2022/02/16 04:00:55;;;;;;;2.40;1.40;;;7.40;99.90;;;;;;4981583;28;20035;-68
2022/02/16 04:03:21;;;;;;;3.03;1.30;;;7.30;99.90;;;;;;4985918;28;20073;-68
2022/02/16 04:05:47;;;;;;;1.05;0.93;;;7.40;99.90;;;;;;4984521;28;20483;-68
2022/02/16 04:08:12;;;;;;;2.97;1.40;;;7.40;99.90;;;;;;4992011;28;20129;-68
2022/02/16 04:10:38;;;;;;;1.85;1.13;;;7.40;99.90;;;;;;4989695;28;20451;-68
2022/02/16 04:13:04;;;;;;;1.67;0.93;;;7.40;99.90;;;;;;4985327;28;20027;-68
2022/02/16 04:15:30;;;;;;;3.03;1.15;;;7.40;99.90;;;;;;4990905;28;20363;-68
2022/02/16 04:17:56;;;;;;;3.40;1.48;;;7.40;99.90;;;;;;4986142;28;20114;-68
2022/02/16 04:20:22;;;;;;;3.17;1.67;;;7.50;99.90;;;;;;5003085;28;20546;-68
2022/02/16 04:22:49;;;;;;;2.85;1.30;;;7.50;99.90;;;;;;4988519;28;20028;-68
2022/02/16 04:25:16;;;;;;;3.30;1.15;;;7.50;99.90;;;;;;4988089;28;20475;-68
2022/02/16 04:27:42;;;;;;;3.38;1.45;;;7.50;99.90;;;;;;4992369;28;20030;-68
2022/02/16 04:30:08;;;;;;;3.45;1.13;;;7.50;99.90;;;;;;4984423;28;20095;-68
2022/02/16 04:32:34;;;;;;;0.80;0.75;;;7.50;99.90;;;;;;4991079;28;20030;-68
2022/02/16 04:35:00;;;;;;;2.17;1.13;;;7.50;99.90;;;;;;4989601;28;20085;-68
2022/02/16 04:37:26;;;;;;;2.05;1.15;;;7.50;99.90;;;;;;4984208;28;20031;-68
2022/02/16 04:39:51;;;;;;;2.10;1.13;;;7.60;99.90;;;;;;4992017;28;20072;-68
2022/02/16 04:42:17;;;;;;;1.15;0.80;;;7.60;99.90;;;;;;4984275;28;20494;-68
2022/02/16 04:44:44;;;;;;;1.77;0.90;;;7.60;99.90;;;;;;4990738;28;20101;-68
2022/02/16 04:47:09;;;;;;;2.53;1.17;;;7.60;99.90;;;;;;4986036;28;20031;-68
2022/02/16 04:49:35;;;;;;;0.60;0.60;;;7.50;99.90;;;;;;4991603;28;20073;-68
2022/02/16 04:52:02;;;;;;;1.33;0.85;;;7.60;99.90;;;;;;4990031;28;20069;-68
2022/02/16 04:54:27;;;;;;;1.52;1.10;;;7.60;99.90;;;;;;4984838;28;20064;-68
2022/02/16 04:56:53;;;;;;;2.63;1.17;;;7.50;99.90;;;;;;4987391;28;20050;-68
2022/02/16 04:59:19;;;;;;;1.55;0.90;;;7.50;99.90;;;;;;4986722;28;20026;-68
2022/02/16 05:01:44;;;;;;;1.85;1.10;;;7.50;99.90;;;;;;4993629;28;20402;-68
2022/02/16 05:04:10;;;;;;;1.45;0.82;;;7.50;99.90;;;;;;4985988;28;20557;-68
2022/02/16 05:06:38;;;;;;;2.17;1.05;;;7.50;99.90;;;;;;4991458;28;20026;-68
2022/02/16 05:09:07;;;;;;;1.85;1.00;;;7.50;99.90;;;;;;4997884;28;20383;-68
2022/02/16 05:11:33;;;;;;;2.60;1.20;;;7.50;99.90;;;;;;4990983;28;20085;-68
2022/02/16 05:13:59;;;;;;;3.92;1.35;;;7.50;99.90;;;;;;4995637;28;20311;-67
2022/02/16 05:16:25;;;;;;;3.03;1.42;;;7.60;99.90;;;;;;4999836;28;20030;-68
2022/02/16 05:18:51;;;;;;;4.35;1.40;;;7.60;99.90;;;;;;4993484;28;20122;-67
2022/02/16 05:21:17;;;;;;;1.67;1.08;;;7.50;99.90;;;;;;4986607;28;20134;-67
2022/02/16 05:23:43;;;;;;;2.15;1.35;;;7.50;99.90;;;;;;4993843;28;20694;-67
2022/02/16 05:26:09;;;;;;;0.88;0.88;;;7.60;99.90;;;;;;4996579;28;20030;-67
2022/02/16 05:28:35;;;;;;;2.67;1.23;;;7.50;99.90;;;;;;4996101;28;20034;-67
2022/02/16 05:31:01;;;;;;;1.48;0.95;;;7.60;99.90;;;;;;4999610;28;20030;-67
2022/02/16 05:33:26;;;;;;;1.15;0.70;;;7.60;99.90;;;;;;4997413;28;20482;-67
2022/02/16 05:35:52;;;;;;;2.53;1.00;;;7.60;99.90;;;;;;4992366;28;20168;-67
2022/02/16 05:38:18;;;;;;;3.53;0.90;;;7.60;99.90;;;;;;4998130;28;20080;-67
2022/02/16 05:40:44;;;;;;;1.40;0.90;;;7.60;99.90;;;;;;4996873;28;20109;-67
2022/02/16 05:43:13;;;;;;;0.90;0.80;;;7.60;99.90;;;;;;4998894;28;20072;-67
2022/02/16 05:45:43;;;;;;;1.27;0.85;;;7.60;99.90;;;;;;4998697;28;20045;-67
2022/02/16 05:48:09;;;;;;;1.45;0.80;;;7.60;99.90;;;;;;4998181;28;20115;-67
2022/02/16 05:50:35;;;;;;;2.58;1.15;;;7.60;99.90;;;;;;4990233;28;20057;-67
2022/02/16 05:53:02;;;;;;;6.15;1.15;;;7.70;99.90;;;;;;4988714;28;20022;-67
2022/02/16 05:55:29;;;;;;;1.45;0.90;;;7.60;99.90;;;;;;4986150;28;20069;-68
2022/02/16 05:57:55;;;;;;;1.95;0.80;;;7.60;99.90;;;;;;4998347;28;20034;-68
2022/02/16 06:00:20;;;;;;;0.93;0.80;;;7.70;99.90;;;;;;5001492;28;20514;-68
2022/02/16 06:02:46;;;;;;;0.70;0.70;;;7.70;99.90;;;;;;4997817;28;20393;-68
2022/02/16 06:05:12;;;;;;;1.80;1.23;;;7.70;99.90;;;;;;4996108;28;20026;-68
2022/02/16 06:07:38;;;;;;;0.80;0.80;;;7.70;99.90;;;;;;4994168;28;20081;-68
2022/02/16 06:10:04;;;;;;;1.40;0.90;;;7.70;99.90;;;;;;4987225;28;20030;-67
2022/02/16 06:12:30;;;;;;;0.93;0.70;;;7.70;99.90;;;;;;4984965;28;20023;-68
2022/02/16 06:14:55;;;;;;;0.80;0.80;;;7.80;99.90;;;;;;4989248;28;20102;-68
2022/02/16 06:17:21;;;;;;;2.00;1.08;;;7.70;99.90;;;;;;4985913;28;20033;-68
2022/02/16 06:19:47;;;;;;;2.17;1.00;;;7.80;99.90;;;;;;4989213;28;20026;-68
2022/02/16 06:22:12;;;;;;;1.35;1.00;;;7.80;99.90;;;;;;4990537;28;20042;-68
2022/02/16 06:24:38;;;;;;;2.22;1.17;;;7.80;99.90;;;;;;4985777;28;20025;-68
2022/02/16 06:27:04;;;;;;;0.70;0.70;;;7.80;99.90;;;;;;4987947;28;20049;-68
2022/02/16 06:29:29;;;;;;;2.40;1.10;;;7.90;99.90;;;;;;4985344;28;20027;-68
2022/02/16 06:31:55;;;;;;;1.95;1.10;;;7.90;99.90;;;;;;4981691;28;20033;-68
2022/02/16 06:34:21;;;;;;;2.90;1.00;;;8.00;99.90;;;;;;4991382;28;20025;-68
2022/02/16 06:36:46;;;;;;;1.95;1.00;;;8.00;99.90;;;;;;4991913;28;20490;-69
2022/02/16 06:39:12;;;;;;;1.30;0.85;;;8.00;99.90;;;;;;4986558;28;20033;-68
2022/02/16 06:41:38;;;;;;;1.67;0.90;;;8.00;99.90;;;;;;4980820;28;20030;-68
2022/02/16 06:44:04;;;;;;;0.70;0.70;;;8.10;99.90;;;;;;4986948;28;20059;-69
2022/02/16 06:46:30;;;;;;;1.80;0.93;;;8.00;99.90;;;;;;4989524;28;20498;-68
2022/02/16 06:48:55;;;;;;;1.88;0.95;;;8.00;99.90;;;;;;4983695;28;20031;-68
2022/02/16 06:51:21;;;;;;;0.90;0.80;;;8.00;99.90;;;;;;4987321;28;20054;-68
2022/02/16 06:53:55;;;;;;;0.60;0.60;;;8.00;99.90;;;;;;4985637;28;20031;-67
2022/02/16 06:56:21;;;;;;;0.60;0.60;;;8.00;99.90;;;;;;4992895;28;20099;-67
2022/02/16 06:58:46;;;;;;;1.23;0.90;;;8.00;99.90;;;;;;5000077;28;20029;-67
2022/02/16 07:01:12;;;;;;;0.60;0.60;;;;;;;;;;5001644;28;20433;-68
2022/02/16 07:03:38;;;;;;;1.95;0.95;;;8.00;99.90;;;;;;4981267;28;20053;-68
2022/02/16 07:06:04;;;;;;;1.15;1.00;;;8.00;99.90;;;;;;4994903;28;20086;-68
2022/02/16 07:08:31;;;;;;;2.70;1.00;;;8.00;99.90;;;;;;4998782;28;20074;-68
2022/02/16 07:10:56;;;;;;;1.10;0.77;;;8.00;99.90;;;;;;4980925;28;20073;-68
2022/02/16 07:13:22;;;;;;;2.05;0.93;;;8.10;99.90;;;;;;4986010;28;20035;-67
2022/02/16 07:15:49;;;;;;;1.42;0.80;;;8.10;99.90;;;;;;4987526;28;20031;-68
2022/02/16 07:18:14;;;;;;;0.82;0.77;;;8.10;99.90;;;;;;4987959;28;20031;-68
2022/02/16 07:20:40;;;;;;;2.42;1.00;;;8.10;99.90;;;;;;4985489;28;20475;-68
2022/02/16 07:23:06;;;;;;;2.05;0.90;;;8.10;99.90;;;;;;4983136;28;20403;-68
2022/02/16 07:25:33;;;;;;;1.05;0.90;;;8.10;99.90;;;;;;4985233;28;20034;-68
2022/02/16 07:27:58;;;;;;;1.70;1.00;;;8.10;99.90;;;;;;4985403;28;20034;-68
2022/02/16 07:30:24;;;;;;;0.95;0.70;;;8.20;99.90;;;;;;4988792;28;20031;-68
2022/02/16 07:32:50;;;;;;;1.42;0.80;;;8.20;99.90;;;;;;4985945;28;20595;-68
2022/02/16 07:35:15;;;;;;;1.08;0.80;;;8.20;99.90;;;;;;4994616;28;20350;-68
2022/02/16 07:37:42;;;;;;;1.48;1.00;;;8.10;99.90;;;;;;4992826;28;20049;-68
2022/02/16 07:40:09;;;;;;;1.15;0.80;;;8.20;99.90;;;;;;4997384;28;20022;-68
2022/02/16 07:42:35;;;;;;;1.13;0.80;;;8.20;99.90;;;;;;4995852;28;20038;-67
2022/02/16 07:45:03;;;;;;;1.42;0.80;;;8.30;99.90;;;;;;4998652;28;20037;-67
2022/02/16 07:47:29;;;;;;;1.60;0.85;;;8.30;99.90;;;;;;4998553;28;20372;-67
2022/02/16 07:49:54;;;;;;;1.15;0.90;;;8.30;99.90;;;;;;4993295;28;20029;-68
2022/02/16 07:52:20;;;;;;;2.55;0.88;;;8.30;99.90;;;;;;4988191;28;20072;-68
2022/02/16 07:54:46;;;;;;;1.33;0.80;;;8.40;99.90;;;;;;4986576;28;20669;-68
2022/02/16 07:57:11;;;;;;;1.85;1.05;;;8.50;99.90;;;;;;4986334;28;20029;-68
2022/02/16 07:59:37;;;;;;;0.82;0.75;;;8.50;99.90;;;;;;4987688;28;20053;-68
2022/02/16 08:02:03;;;;;;;2.00;1.02;;;8.40;99.90;;;;;;4993595;28;20598;-68
2022/02/16 08:04:30;;;;;;;0.70;0.70;;;8.40;99.90;;;;;;4988121;28;20035;-68
2022/02/16 08:06:57;;;;;;;0.95;0.70;;;8.50;99.90;;;;;;4992673;28;20137;-68
2022/02/16 08:09:22;;;;;;;1.55;0.93;;;8.50;99.90;;;;;;4984925;28;20168;-68
2022/02/16 08:11:49;;;;;;;0.75;0.70;;;8.50;99.90;;;;;;4987519;28;20535;-68
2022/02/16 08:14:15;;;;;;;1.05;0.80;;;8.60;99.90;;;;;;4991669;28;20077;-69
2022/02/16 08:16:41;;;;;;;1.73;1.00;;;8.60;99.90;;;;;;4984645;28;20081;-69
2022/02/16 08:19:08;;;;;;;1.10;0.88;;;8.70;99.90;;;;;;4986465;28;20034;-69
2022/02/16 08:21:35;;;;;;;1.13;1.00;;;8.70;99.90;;;;;;4987409;28;20030;-69
2022/02/16 08:24:01;;;;;;;1.85;0.95;;;8.70;99.90;;;;;;4993545;28;20041;-68
2022/02/16 08:26:27;;;;;;;2.05;0.88;;;8.70;99.90;;;;;;4987858;28;20041;-68
2022/02/16 08:28:53;;;;;;;1.65;0.80;;;8.60;99.90;;;;;;4984651;28;20026;-68
2022/02/16 08:31:19;;;;;;;1.20;0.70;;;8.60;99.90;;;;;;4985688;28;20356;-67
2022/02/16 08:33:45;;;;;;;0.95;0.82;;;8.60;99.90;;;;;;4986942;28;20247;-67
2022/02/16 08:36:11;;;;;;;0.85;0.70;;;8.50;99.90;;;;;;4990709;28;20504;-67
2022/02/16 08:38:37;;;;;;;0.93;0.70;;;8.50;99.90;;;;;;4985016;28;20029;-67
2022/02/16 08:41:04;;;;;;;1.10;0.82;;;8.50;99.90;;;;;;4985556;28;20117;-67
2022/02/16 08:43:29;;;;;;;1.00;0.80;;;8.60;99.90;;;;;;4990467;28;20037;-67
2022/02/16 08:45:58;;;;;;;0.70;0.70;;;8.70;99.90;;;;;;4989696;28;20871;-67
2022/02/16 08:48:24;;;;;;;1.15;1.00;;;8.70;99.90;;;;;;4989269;28;20525;-68
2022/02/16 08:50:53;;;;;;;0.95;0.70;;;8.70;99.90;;;;;;4985393;28;20019;-67
2022/02/16 08:53:20;;;;;;;0.70;0.70;;;8.70;99.90;;;;;;4994545;28;20033;-67
2022/02/16 08:55:45;;;;;;;1.10;0.80;;;8.70;99.90;;;;;;4992263;28;20035;-68
2022/02/16 08:58:12;;;;;;;0.82;0.70;;;8.80;99.90;;;;;;4991955;28;20046;-68
2022/02/16 09:00:39;;;;;;;1.50;0.70;;;8.90;99.90;;;;;;4985107;28;20035;-67
2022/02/16 09:03:05;;;;;;;0.77;0.70;;;8.80;99.90;;;;;;4995102;28;20029;-62
2022/02/16 09:05:30;;;;;;;1.17;1.00;;;8.90;99.90;;;;;;4989751;28;20037;-62
2022/02/16 09:07:56;;;;;;;1.08;0.70;;;8.90;99.90;;;;;;4989260;28;20050;-63
2022/02/16 09:10:22;;;;;;;0.70;0.70;;;8.90;99.90;;;;;;4989140;28;20374;-63
2022/02/16 09:12:47;;;;;;;0.70;0.70;;;9.00;99.90;;;;;;4989043;28;20037;-63
2022/02/16 09:15:13;;;;;;;0.65;0.65;;;9.00;99.90;;;;;;4989171;28;20390;-62
2022/02/16 09:17:39;;;;;;;0.70;0.70;;;9.00;99.90;;;;;;4983309;28;20037;-63
2022/02/16 09:20:06;;;;;;;2.08;0.90;;;9.00;99.90;;;;;;4989968;28;20031;-63
2022/02/16 09:22:31;;;;;;;0.65;0.65;;;9.00;99.90;;;;;;4988648;28;20391;-63
2022/02/16 09:24:57;;;;;;;0.93;0.77;;;9.00;99.90;;;;;;4985842;28;20382;-62
2022/02/16 09:27:23;;;;;;;1.58;0.90;;;9.00;99.90;;;;;;4989028;28;20030;-63
2022/02/16 09:29:50;;;;;;;1.70;0.90;;;9.00;99.90;;;;;;4987278;28;20026;-62
2022/02/16 09:32:16;;;;;;;1.27;0.80;;;9.00;99.90;;;;;;4993829;28;20135;-63
2022/02/16 09:34:43;;;;;;;0.80;0.70;;;9.10;99.90;;;;;;4988818;28;20018;-63
2022/02/16 09:37:09;;;;;;;0.70;0.70;;;9.10;99.90;;;;;;4988449;28;20023;-63
2022/02/16 09:39:35;;;;;;;1.38;0.82;;;9.10;99.90;;;;;;4990424;28;20351;-63
2022/02/16 09:42:00;;;;;;;0.73;0.73;;;9.20;99.90;;;;;;4981692;28;20545;-64
2022/02/16 09:44:39;;;;;;;0.93;0.70;;;9.20;99.90;;;;;;4991380;28;20418;-64
2022/02/16 09:47:06;;;;;;;1.38;0.80;;;9.30;99.90;;;;;;4983321;28;20530;-63
2022/02/16 09:49:33;;;;;;;1.65;0.95;;;9.30;99.90;;;;;;4988808;28;20387;-63
2022/02/16 09:51:59;;;;;;;0.82;0.70;;;9.30;99.90;;;;;;4984381;28;20030;-63
2022/02/16 09:54:25;;;;;;;3.20;1.45;;;9.40;99.90;;;;;;4987195;28;20034;-64
2022/02/16 09:56:51;;;;;;;0.70;0.70;;;9.40;99.90;;;;;;4986244;28;20026;-63
2022/02/16 09:59:16;;;;;;;2.55;1.27;;;9.50;99.90;;;;;;4984281;28;20026;-63
2022/02/16 10:01:54;;;;;;;2.50;1.20;;;9.60;99.90;;;;;;4992420;28;20022;-63
2022/02/16 10:04:20;;;;;;;1.02;0.85;;;9.60;99.90;;;;;;4985712;28;20129;-65
2022/02/16 10:06:48;;;;;;;2.50;1.02;;;9.70;99.90;;;;;;4986478;28;20085;-64
2022/02/16 10:09:32;;;;;;;2.13;1.10;;;9.80;99.90;;;;;;4985350;28;20049;-63
2022/02/16 10:11:59;;;;;;;1.50;0.93;;;9.80;99.90;;;;;;4978944;28;20592;-63
2022/02/16 10:14:35;;;;;;;1.63;0.98;;;9.80;99.90;;;;;;4979660;28;20014;-63
2022/02/16 10:17:15;;;;;;;2.15;1.02;;;9.80;99.90;;;;;;4981374;28;20034;-63
2022/02/16 10:19:47;;;;;;;1.73;0.90;;;10.00;99.90;;;;;;4980628;28;20026;-64
2022/02/16 10:22:13;;;;;;;2.10;0.90;;;10.00;99.90;;;;;;4980440;28;20122;-63
2022/02/16 10:24:38;;;;;;;2.40;1.10;;;10.10;99.90;;;;;;4980410;28;20102;-66
2022/02/16 10:27:05;;;;;;;2.03;0.90;;;10.20;99.90;;;;;;4981270;28;20038;-64
2022/02/16 10:29:35;;;;;;;1.10;0.80;;;10.30;99.90;;;;;;4982312;28;20101;-63
2022/02/16 10:32:02;;;;;;;2.60;1.13;;;10.30;99.90;;;;;;4985269;28;20022;-63
2022/02/16 10:34:51;;;;;;;1.83;0.90;;;10.40;99.90;;;;;;5005374;28;20030;-63
2022/02/16 10:37:32;;;;;;;1.95;0.98;;;10.40;99.90;;;;;;4986166;28;20031;-63
2022/02/16 10:40:10;;;;;;;1.83;0.80;;;10.50;99.90;;;;;;4986866;28;20038;-63
2022/02/16 10:42:56;;;;;;;1.42;0.85;;;10.60;99.90;;;;;;4982871;28;20677;-63
2022/02/16 10:45:23;;;;;;;1.40;0.90;;;10.70;99.90;;;;;;4986394;28;20081;-63
2022/02/16 10:47:51;;;;;;;0.60;0.60;;;10.70;99.90;;;;;;4985788;28;20039;-63
2022/02/16 10:50:17;;;;;;;1.05;0.70;;;10.80;99.90;;;;;;4981900;28;20034;-64
2022/02/16 10:52:55;;;;;;;2.38;0.93;;;10.80;99.90;;;;;;4985757;28;20386;-63
2022/02/16 10:55:35;;;;;;;7.63;0.98;;;10.80;99.90;;;;;;4988448;28;20030;-62
2022/02/16 10:58:03;;;;;;;1.67;0.85;;;10.80;99.90;;;;;;4983279;28;20035;-62
2022/02/16 11:00:31;;;;;;;1.23;0.88;;;10.80;99.90;;;;;;4990228;28;20537;-63
2022/02/16 11:02:58;;;;;;;0.73;0.60;;;10.90;99.90;;;;;;4985806;28;20054;-62
2022/02/16 11:05:24;;;;;;;1.73;0.90;;;11.00;99.90;;;;;;4986640;28;20029;-63
2022/02/16 11:07:51;;;;;;;0.50;0.50;;;10.90;99.90;;;;;;4989934;28;20127;-62
2022/02/16 11:10:20;;;;;;;1.40;0.82;;;11.00;99.90;;;;;;4989435;28;20018;-63
2022/02/16 11:12:46;;;;;;;3.65;0.80;;;11.10;99.90;;;;;;4989070;28;20073;-63
2022/02/16 11:15:14;;;;;;;1.67;0.80;;;11.10;99.90;;;;;;4992941;28;20030;-63
2022/02/16 11:17:40;;;;;;;2.28;0.77;;;11.10;99.90;;;;;;4993837;28;20390;-63
2022/02/16 11:20:24;;;;;;;1.25;0.75;;;11.20;99.90;;;;;;4988513;28;20030;-63
2022/02/16 11:22:51;;;;;;;2.22;0.80;;;11.20;99.90;;;;;;4993844;28;20092;-63
2022/02/16 11:25:32;;;;;;;1.55;0.80;;;11.20;99.90;;;;;;4989420;28;20046;-62
2022/02/16 11:27:59;;;;;;;1.08;0.70;;;11.20;99.90;;;;;;4993618;28;20022;-63
2022/02/16 11:30:37;;;;;;;0.85;0.65;;;11.30;99.90;;;;;;4991185;28;20490;-63
2022/02/16 11:33:22;;;;;;;0.60;0.60;;;11.40;99.90;;;;;;4995001;28;20364;-63
2022/02/16 11:35:59;;;;;;;0.70;0.70;;;11.50;99.90;;;;;;4993115;28;20026;-63
2022/02/16 11:38:43;;;;;;;2.10;1.00;;;11.60;99.90;;;;;;5003713;28;20065;-63
2022/02/16 11:41:27;;;;;;;0.70;0.70;;;11.60;99.90;;;;;;4998335;28;20215;-64
2022/02/16 11:44:00;;;;;;;0.57;0.57;;;11.80;99.90;;;;;;4982390;28;20121;-63
2022/02/16 11:46:44;;;;;;;1.33;0.80;;;12.00;99.90;;;;;;4986178;28;20386;-63
2022/02/16 11:49:28;;;;;;;0.93;0.60;;;12.00;99.90;;;;;;4991324;28;20053;-63
2022/02/16 11:51:55;;;;;;;1.23;0.80;;;12.00;99.90;;;;;;4988669;28;20042;-64
2022/02/16 11:54:46;;;;;;;0.60;0.60;;;12.10;99.90;;;;;;4989573;28;20131;-64
2022/02/16 11:57:30;;;;;;;1.40;0.85;;;12.20;99.90;;;;;;4987950;28;20019;-63
2022/02/16 11:59:57;;;;;;;0.90;0.70;;;12.10;99.90;;;;;;4988344;28;20054;-63
2022/02/16 12:02:23;;;;;;;2.53;0.90;;;12.20;99.90;;;;;;4988793;28;20033;-63
2022/02/16 12:04:54;;;;;;;1.23;0.70;;;12.10;99.90;;;;;;4991866;28;20030;-64
2022/02/16 12:07:28;;;;;;;2.28;1.17;;;12.10;99.90;;;;;;4998737;28;20042;-64
2022/02/16 12:10:17;;;;;;;1.02;0.70;;;12.00;99.90;;;;;;4994548;28;20041;-65
2022/02/16 12:12:45;;;;;;;1.00;0.70;;;12.20;99.90;;;;;;4989429;28;20546;-64
2022/02/16 12:15:11;;;;;;;1.40;0.70;;;12.10;99.90;;;;;;4992807;28;20030;-64
2022/02/16 12:17:36;;;;;;;3.75;1.52;;;12.10;99.90;;;;;;4990160;28;20367;-63
2022/02/16 12:20:06;;;;;;;1.75;0.90;;;12.10;99.90;;;;;;4985791;28;20026;-63
2022/02/16 12:22:36;;;;;;;3.08;1.02;;;11.90;99.90;;;;;;4988571;28;20418;-63
2022/02/16 12:25:10;;;;;;;3.20;1.40;;;12.00;99.90;;;;;;4983946;28;20073;-63
2022/02/16 12:27:36;;;;;;;1.73;0.90;;;12.00;99.90;;;;;;4985489;28;20027;-63
2022/02/16 12:30:02;;;;;;;4.45;1.60;;;11.90;99.90;;;;;;4987471;28;20060;-65
2022/02/16 12:32:28;;;;;;;2.13;1.00;;;11.90;99.90;;;;;;4989184;28;20026;-62
2022/02/16 12:34:54;;;;;;;4.38;1.15;;;11.90;99.90;;;;;;4985137;28;20026;-64
2022/02/16 12:37:21;;;;;;;3.30;1.20;;;12.00;99.90;;;;;;4995125;28;20531;-63
2022/02/16 12:40:22;;;;;;;3.90;1.38;;;11.90;99.90;;;;;;4991239;28;20023;-63
2022/02/16 12:42:49;;;;;;;2.67;1.10;;;11.90;99.90;;;;;;4951975;28;20030;-63
2022/02/16 12:45:21;;;;;;;5.72;1.33;;;11.90;99.90;;;;;;4983422;28;20027;-63
2022/02/16 12:47:49;;;;;;;2.95;1.35;;;11.90;99.90;;;;;;4980855;28;20038;-63
2022/02/16 12:50:16;;;;;;;3.85;1.45;;;12.10;99.90;;;;;;4988504;28;20027;-64
2022/02/16 12:52:41;;;;;;;1.83;0.98;;;12.10;99.90;;;;;;4986635;28;20026;-63
2022/02/16 12:55:09;;;;;;;1.27;0.93;;;12.00;99.90;;;;;;4985705;28;20027;-63
2022/02/16 12:57:37;;;;;;;2.92;1.27;;;12.00;99.90;;;;;;4986997;28;20029;-64